Time;durP1;ratioP1;P1;durP2;ratioP2;P2;SDS_P1;SDS_P2;PMS_P1;PMS_P2;Temp;Humidity;BMP_temperature;BMP_pressure;BME280_temperature;BME280_humidity;BME280_pressure;Samples;Min_cycle;Max_cycle;Signal;HPM_P1;HPM_P2
2021/03/30 00:02:04;;;;;;;10.25;3.30;;;9.60;64.20;;;;;;5056950;28;20045;-80
2021/03/30 00:04:31;;;;;;;13.05;3.63;;;9.60;63.90;;;;;;5056753;28;20053;-80
2021/03/30 00:06:57;;;;;;;11.40;3.40;;;9.70;63.80;;;;;;5056828;28;20060;-80
2021/03/30 00:09:23;;;;;;;11.60;3.47;;;9.70;64.50;;;;;;5057063;28;20049;-80
2021/03/30 00:11:50;;;;;;;12.93;3.33;;;9.70;64.00;;;;;;5056544;28;20060;-79
2021/03/30 00:14:16;;;;;;;13.15;3.22;;;9.50;63.90;;;;;;5056716;28;20462;-79
2021/03/30 00:16:43;;;;;;;12.10;3.33;;;9.90;64.10;;;;;;5056595;28;20064;-79
2021/03/30 00:19:09;;;;;;;15.32;4.03;;;9.60;63.90;;;;;;5039391;28;20059;-79
2021/03/30 00:21:35;;;;;;;14.57;3.88;;;9.60;63.90;;;;;;5056400;28;20437;-79
2021/03/30 00:24:01;;;;;;;14.30;3.78;;;9.60;63.80;;;;;;5056349;28;20049;-80
2021/03/30 00:26:34;;;;;;;10.77;3.47;;;9.70;63.70;;;;;;5056673;28;20056;-79
2021/03/30 00:29:04;;;;;;;16.73;3.85;;;9.70;63.60;;;;;;5056240;28;20056;-79
2021/03/30 00:31:30;;;;;;;14.50;3.40;;;9.70;63.90;;;;;;5056327;28;20056;-80
2021/03/30 00:33:57;;;;;;;14.40;3.35;;;9.60;64.60;;;;;;5056227;28;20049;-79
2021/03/30 00:36:23;;;;;;;11.43;3.83;;;9.60;64.20;;;;;;5056140;28;20426;-80
2021/03/30 00:38:49;;;;;;;10.95;3.50;;;9.60;64.50;;;;;;5055801;28;20060;-79
2021/03/30 00:41:15;;;;;;;13.15;3.50;;;9.50;64.60;;;;;;5059331;28;20072;-80
2021/03/30 00:43:42;;;;;;;10.35;3.40;;;9.60;64.80;;;;;;5061933;28;20048;-79
2021/03/30 00:46:18;;;;;;;12.20;3.30;;;9.50;64.50;;;;;;5056737;28;20052;-79
2021/03/30 00:48:47;;;;;;;15.05;4.53;;;9.50;64.50;;;;;;5057943;28;20052;-79
2021/03/30 00:51:16;;;;;;;11.43;3.92;;;9.50;64.40;;;;;;5057652;28;20048;-79
2021/03/30 00:53:42;;;;;;;18.60;3.50;;;9.50;65.00;;;;;;5056061;28;20061;-79
2021/03/30 00:56:09;;;;;;;11.93;3.03;;;9.50;64.50;;;;;;5038159;28;20040;-80
2021/03/30 00:58:35;;;;;;;13.32;3.65;;;9.50;64.50;;;;;;5055451;28;20051;-79
2021/03/30 01:01:02;;;;;;;17.92;3.60;;;9.50;64.40;;;;;;5037896;28;20453;-80
2021/03/30 01:03:29;;;;;;;11.27;3.25;;;9.40;64.70;;;;;;5055178;28;20045;-80
2021/03/30 01:05:55;;;;;;;14.32;3.72;;;9.40;64.90;;;;;;5055904;28;20398;-80
2021/03/30 01:08:40;;;;;;;16.45;4.30;;;9.40;65.00;;;;;;5055921;28;20057;-78
2021/03/30 01:11:59;;;;;;;14.80;3.97;;;9.30;64.90;;;;;;5055277;28;20052;-78
2021/03/30 01:15:03;;;;;;;13.25;3.78;;;9.40;64.70;;;;;;4993524;28;20050;-78
2021/03/30 01:18:06;;;;;;;15.82;3.65;;;9.30;64.70;;;;;;4994002;28;20065;-79
2021/03/30 01:21:14;;;;;;;13.40;3.42;;;9.30;65.60;;;;;;4994524;28;20042;-78
2021/03/30 01:23:55;;;;;;;13.75;3.55;;;9.30;65.10;;;;;;4991046;28;20408;-80
2021/03/30 01:26:49;;;;;;;12.52;4.53;;;9.20;65.80;;;;;;5002989;28;20038;-78
2021/03/30 01:29:42;;;;;;;9.68;3.88;;;9.20;65.20;;;;;;4994261;28;20362;-79
2021/03/30 01:32:46;;;;;;;12.65;3.38;;;9.20;65.40;;;;;;4994251;28;20344;-79
2021/03/30 01:35:17;;;;;;;9.60;3.45;;;9.20;66.00;;;;;;4936015;29;20062;-79
2021/03/30 01:37:46;;;;;;;13.15;4.15;;;9.20;65.60;;;;;;4935907;29;20430;-78
2021/03/30 01:40:21;;;;;;;13.25;3.33;;;9.10;65.70;;;;;;4937645;29;20058;-79
2021/03/30 01:42:49;;;;;;;17.92;4.35;;;9.10;65.60;;;;;;4936421;29;20423;-79
2021/03/30 01:45:18;;;;;;;18.80;3.85;;;9.10;65.90;;;;;;4935567;29;20721;-79
2021/03/30 01:47:45;;;;;;;10.93;3.85;;;9.10;66.10;;;;;;4935570;29;20051;-78
2021/03/30 01:50:15;;;;;;;14.63;4.63;;;9.00;66.30;;;;;;4956498;28;20061;-79
2021/03/30 01:52:43;;;;;;;19.42;5.55;;;9.00;66.30;;;;;;4974292;28;20058;-79
2021/03/30 01:55:13;;;;;;;12.32;4.20;;;9.00;67.10;;;;;;4973956;28;20066;-79
2021/03/30 01:57:40;;;;;;;13.02;4.00;;;9.00;66.60;;;;;;4974732;28;20058;-78
2021/03/30 02:00:08;;;;;;;12.85;3.97;;;8.90;66.60;;;;;;4974247;28;20051;-79
2021/03/30 02:02:35;;;;;;;14.32;3.63;;;8.80;66.90;;;;;;4974434;28;20057;-79
2021/03/30 02:05:02;;;;;;;12.63;3.88;;;8.80;67.00;;;;;;4973762;28;20066;-79
2021/03/30 02:07:30;;;;;;;12.43;4.18;;;8.80;67.40;;;;;;4974104;28;20043;-78
2021/03/30 02:10:04;;;;;;;11.65;3.65;;;8.80;67.60;;;;;;4986316;28;20045;-78
2021/03/30 02:12:34;;;;;;;13.35;3.67;;;8.80;67.50;;;;;;5061796;28;20049;-79
2021/03/30 02:15:01;;;;;;;16.30;4.25;;;8.80;67.60;;;;;;5036912;28;20055;-79
2021/03/30 02:17:37;;;;;;;12.15;3.63;;;8.80;67.80;;;;;;5055163;28;20448;-79
2021/03/30 02:20:19;;;;;;;15.60;4.80;;;8.90;67.90;;;;;;5054850;28;20048;-78
2021/03/30 02:22:57;;;;;;;13.77;3.38;;;8.90;68.00;;;;;;5054825;28;20072;-77
2021/03/30 02:25:25;;;;;;;23.05;4.10;;;8.90;67.90;;;;;;5054194;28;20053;-81
2021/03/30 02:27:54;;;;;;;14.90;3.85;;;8.90;68.20;;;;;;5054259;28;20045;-80
2021/03/30 02:30:24;;;;;;;12.95;3.80;;;8.80;68.30;;;;;;5055305;28;20045;-82
2021/03/30 02:32:52;;;;;;;15.00;4.40;;;8.90;68.70;;;;;;5055379;28;20052;-81
2021/03/30 02:35:20;;;;;;;13.00;3.67;;;8.90;68.50;;;;;;5054736;28;20056;-80
2021/03/30 02:37:47;;;;;;;13.20;4.20;;;8.90;68.50;;;;;;5054945;28;20048;-80
2021/03/30 02:40:15;;;;;;;13.20;4.32;;;8.90;68.60;;;;;;5053896;28;20041;-81
2021/03/30 02:42:44;;;;;;;20.30;4.35;;;8.90;68.80;;;;;;5054742;28;20052;-81
2021/03/30 02:45:12;;;;;;;13.98;4.07;;;8.90;68.90;;;;;;5054095;28;20060;-81
2021/03/30 02:47:42;;;;;;;13.73;3.92;;;8.80;69.00;;;;;;5054667;28;20041;-81
2021/03/30 02:50:10;;;;;;;16.17;3.40;;;8.90;69.20;;;;;;5037159;28;20052;-80
2021/03/30 02:52:37;;;;;;;17.27;3.53;;;8.80;69.30;;;;;;5054157;28;20055;-80
2021/03/30 02:55:05;;;;;;;14.48;4.38;;;8.80;69.60;;;;;;5064891;28;20049;-81
2021/03/30 02:57:33;;;;;;;19.00;4.40;;;8.70;69.80;;;;;;5056774;28;20053;-81
2021/03/30 03:00:00;;;;;;;14.43;4.47;;;8.70;70.10;;;;;;5054247;28;20446;-81
2021/03/30 03:02:47;;;;;;;13.02;4.50;;;8.70;70.00;;;;;;5053823;28;20053;-81
2021/03/30 03:05:14;;;;;;;12.40;3.90;;;8.60;70.10;;;;;;5054064;28;20411;-80
2021/03/30 03:07:41;;;;;;;17.52;3.75;;;8.60;70.20;;;;;;5054610;28;20067;-81
2021/03/30 03:10:14;;;;;;;20.73;4.72;;;8.60;70.40;;;;;;5054765;28;20044;-81
2021/03/30 03:12:43;;;;;;;15.13;4.40;;;8.50;70.70;;;;;;5054420;28;20040;-81
2021/03/30 03:15:14;;;;;;;19.75;5.00;;;8.50;70.80;;;;;;5053697;28;20045;-81
2021/03/30 03:17:42;;;;;;;12.05;4.32;;;8.50;70.90;;;;;;5054088;28;20427;-80
2021/03/30 03:20:10;;;;;;;12.10;4.32;;;8.40;71.10;;;;;;5036550;28;20057;-79
2021/03/30 03:22:37;;;;;;;18.70;4.88;;;8.40;71.30;;;;;;5059872;28;20334;-80
2021/03/30 03:25:06;;;;;;;15.70;4.40;;;8.30;71.50;;;;;;5040634;28;20068;-81
2021/03/30 03:27:33;;;;;;;17.10;4.55;;;8.30;71.70;;;;;;5057288;28;20057;-81
2021/03/30 03:30:05;;;;;;;20.95;5.45;;;8.20;71.80;;;;;;5058042;28;20322;-80
2021/03/30 03:32:31;;;;;;;12.27;4.07;;;8.10;71.90;;;;;;5057753;28;20037;-80
2021/03/30 03:34:58;;;;;;;14.50;4.50;;;8.10;71.90;;;;;;5057213;28;20052;-80
2021/03/30 03:37:24;;;;;;;18.15;4.65;;;8.10;72.10;;;;;;5057578;28;20430;-76
2021/03/30 03:39:51;;;;;;;14.18;4.38;;;8.00;72.50;;;;;;5066358;28;20060;-79
2021/03/30 03:42:17;;;;;;;13.15;4.32;;;8.00;72.70;;;;;;5057391;28;20052;-79
2021/03/30 03:44:44;;;;;;;11.65;4.88;;;7.90;72.80;;;;;;5057423;28;20089;-80
2021/03/30 03:47:10;;;;;;;13.57;4.72;;;7.90;72.80;;;;;;5057101;28;20053;-81
2021/03/30 03:49:37;;;;;;;22.58;5.97;;;7.90;72.70;;;;;;5057177;28;20056;-79
2021/03/30 03:52:12;;;;;;;17.23;4.10;;;7.80;72.80;;;;;;5057176;28;20048;-80
2021/03/30 03:54:42;;;;;;;16.52;4.80;;;7.90;73.10;;;;;;5035568;28;20351;-80
2021/03/30 03:57:20;;;;;;;17.77;4.90;;;7.80;72.90;;;;;;5036313;28;20053;-80
2021/03/30 03:59:47;;;;;;;17.30;4.25;;;7.80;73.00;;;;;;5037249;28;20079;-80
2021/03/30 04:02:16;;;;;;;17.20;4.90;;;7.70;72.80;;;;;;5037171;28;20056;-79
2021/03/30 04:05:08;;;;;;;14.68;4.82;;;7.80;72.90;;;;;;5036245;28;20049;-81
2021/03/30 04:07:58;;;;;;;13.77;5.18;;;7.60;73.20;;;;;;5037311;28;20049;-80
2021/03/30 04:10:27;;;;;;;13.95;4.95;;;7.60;73.50;;;;;;5036432;28;20053;-80
2021/03/30 04:12:54;;;;;;;13.25;3.92;;;7.50;73.40;;;;;;5037466;28;20339;-80
2021/03/30 04:15:22;;;;;;;16.38;5.45;;;7.50;73.30;;;;;;5037057;28;20057;-80
2021/03/30 04:17:49;;;;;;;16.23;4.60;;;7.40;74.00;;;;;;5036531;28;20048;-79
2021/03/30 04:20:16;;;;;;;9.57;4.43;;;7.30;74.20;;;;;;5037002;28;20053;-80
2021/03/30 04:23:01;;;;;;;16.67;4.50;;;7.20;74.20;;;;;;5036817;28;20073;-79
2021/03/30 04:25:27;;;;;;;12.38;4.70;;;7.20;74.50;;;;;;5043536;28;20108;-81
2021/03/30 04:27:54;;;;;;;16.08;5.38;;;7.30;74.60;;;;;;5036110;28;20323;-81
2021/03/30 04:30:23;;;;;;;13.93;4.90;;;7.10;75.00;;;;;;5036570;28;20056;-80
2021/03/30 04:32:49;;;;;;;20.38;4.88;;;7.10;75.30;;;;;;5036465;28;20049;-79
2021/03/30 04:35:15;;;;;;;15.35;6.47;;;7.00;75.50;;;;;;5036943;28;20439;-79
2021/03/30 04:37:42;;;;;;;19.90;5.38;;;6.90;76.20;;;;;;5036081;28;20511;-80
2021/03/30 04:40:10;;;;;;;9.90;4.43;;;6.90;76.00;;;;;;5036823;28;20037;-79
2021/03/30 04:42:38;;;;;;;16.45;5.93;;;6.90;75.70;;;;;;5034942;28;20050;-79
2021/03/30 04:45:06;;;;;;;22.13;5.70;;;6.80;76.50;;;;;;5036682;28;20342;-81
2021/03/30 04:47:32;;;;;;;19.25;7.35;;;6.80;76.90;;;;;;5036660;28;20438;-80
2021/03/30 04:49:59;;;;;;;16.60;5.32;;;6.80;77.30;;;;;;5035174;28;20343;-81
2021/03/30 04:52:25;;;;;;;15.98;6.13;;;6.80;77.30;;;;;;5035493;28;20060;-80
2021/03/30 04:54:51;;;;;;;18.42;5.57;;;6.90;77.40;;;;;;5054304;28;20346;-80
2021/03/30 04:57:18;;;;;;;14.68;6.10;;;6.80;77.50;;;;;;5055183;28;20426;-80
2021/03/30 04:59:44;;;;;;;21.88;5.20;;;6.80;77.70;;;;;;5056415;28;20049;-81
2021/03/30 05:02:10;;;;;;;24.73;7.90;;;6.80;77.50;;;;;;5056456;28;20060;-81
2021/03/30 05:04:36;;;;;;;18.67;7.10;;;6.80;77.90;;;;;;5038632;28;20048;-80
2021/03/30 05:07:03;;;;;;;19.50;6.88;;;6.90;78.40;;;;;;5055979;28;20060;-80
2021/03/30 05:09:29;;;;;;;20.95;6.38;;;6.90;78.00;;;;;;5065056;28;20053;-80
2021/03/30 05:11:55;;;;;;;25.00;6.65;;;6.90;78.20;;;;;;5056252;28;20052;-80
2021/03/30 05:14:21;;;;;;;18.48;7.15;;;6.90;78.30;;;;;;5056305;28;20053;-79
2021/03/30 05:16:47;;;;;;;19.50;6.93;;;7.00;78.30;;;;;;5055629;28;20043;-77
2021/03/30 05:19:14;;;;;;;18.20;6.63;;;7.00;78.10;;;;;;5055281;28;20068;-81
2021/03/30 05:21:40;;;;;;;16.52;6.43;;;7.10;78.10;;;;;;5055734;28;20049;-80
2021/03/30 05:24:07;;;;;;;21.35;7.18;;;7.10;78.10;;;;;;5055620;28;20049;-80
2021/03/30 05:26:33;;;;;;;19.88;6.80;;;7.00;77.50;;;;;;5060673;28;20051;-80
2021/03/30 05:28:59;;;;;;;18.33;6.57;;;7.00;78.10;;;;;;5074086;28;20036;-80
2021/03/30 05:31:26;;;;;;;25.33;6.97;;;7.10;78.50;;;;;;5074525;28;20044;-79
2021/03/30 05:33:54;;;;;;;21.42;7.10;;;7.20;78.60;;;;;;5073888;28;20060;-80
2021/03/30 05:36:22;;;;;;;20.65;7.47;;;7.30;78.40;;;;;;5071942;28;20048;-80
2021/03/30 05:38:48;;;;;;;19.35;7.43;;;7.30;78.30;;;;;;5073700;28;20048;-79
2021/03/30 05:41:14;;;;;;;26.60;9.05;;;7.40;78.40;;;;;;5074347;28;20060;-80
2021/03/30 05:43:41;;;;;;;20.70;7.30;;;7.40;78.20;;;;;;5073651;28;20048;-81
2021/03/30 05:46:07;;;;;;;23.23;7.75;;;7.40;78.00;;;;;;5075110;28;20338;-81
2021/03/30 05:48:35;;;;;;;18.13;7.20;;;7.50;78.20;;;;;;5073910;28;20055;-79
2021/03/30 05:51:02;;;;;;;20.42;7.28;;;7.50;78.70;;;;;;5075022;28;20047;-80
2021/03/30 05:53:31;;;;;;;19.25;6.85;;;7.60;78.00;;;;;;5083319;28;20045;-80
2021/03/30 05:56:00;;;;;;;22.63;7.15;;;7.60;77.70;;;;;;5074402;28;20323;-80
2021/03/30 05:58:47;;;;;;;18.90;7.38;;;7.70;77.90;;;;;;5074560;28;20056;-79
2021/03/30 06:01:17;;;;;;;19.65;7.78;;;7.70;77.70;;;;;;5075230;28;20044;-81
2021/03/30 06:03:45;;;;;;;20.02;7.07;;;8.00;77.60;;;;;;5073677;28;20055;-80
2021/03/30 06:06:14;;;;;;;16.85;6.70;;;7.90;77.20;;;;;;5073503;28;20055;-81
2021/03/30 06:08:42;;;;;;;17.63;7.22;;;7.90;76.90;;;;;;5071469;28;20048;-80
2021/03/30 06:11:11;;;;;;;19.38;7.43;;;8.00;76.90;;;;;;5054316;28;20411;-80
2021/03/30 06:13:47;;;;;;;20.48;8.07;;;7.80;77.40;;;;;;5053472;28;20045;-80
2021/03/30 06:16:25;;;;;;;25.10;8.70;;;8.20;76.10;;;;;;5053924;28;20053;-80
2021/03/30 06:19:02;;;;;;;19.48;7.40;;;8.30;76.00;;;;;;5056059;28;20049;-79
2021/03/30 06:21:28;;;;;;;18.08;7.38;;;8.40;75.80;;;;;;5074183;28;20057;-80
2021/03/30 06:23:57;;;;;;;14.18;6.70;;;;;;;;;;5073798;28;20056;-80
2021/03/30 06:26:26;;;;;;;17.60;8.07;;;8.30;75.00;;;;;;5073865;28;20450;-80
2021/03/30 06:28:59;;;;;;;18.20;7.35;;;8.50;75.30;;;;;;5074197;28;20049;-79
2021/03/30 06:31:28;;;;;;;22.83;7.90;;;8.50;75.00;;;;;;5074227;28;20044;-79
2021/03/30 06:33:56;;;;;;;22.42;7.20;;;8.60;75.00;;;;;;5074653;28;20428;-80
2021/03/30 06:36:23;;;;;;;17.83;6.97;;;8.90;74.50;;;;;;5067939;28;20063;-80
2021/03/30 06:38:52;;;;;;;22.60;7.97;;;8.70;74.30;;;;;;5068890;28;20040;-80
2021/03/30 06:44:28;;;;;;;23.65;8.18;;;8.80;73.80;;;;;;5073919;28;20139;-79
2021/03/30 06:47:06;;;;;;;18.65;7.50;;;8.90;73.20;;;;;;5074386;28;20443;-80
2021/03/30 06:49:35;;;;;;;23.73;7.68;;;9.10;73.20;;;;;;5074666;28;20041;-81
2021/03/30 06:52:18;;;;;;;15.90;7.72;;;9.10;72.70;;;;;;5075799;28;20057;-81
2021/03/30 06:54:54;;;;;;;18.00;7.03;;;9.20;72.50;;;;;;5074598;28;20067;-80
2021/03/30 06:57:45;;;;;;;28.02;7.68;;;9.30;72.50;;;;;;5077987;28;20048;-80
2021/03/30 07:00:36;;;;;;;18.92;7.30;;;9.30;71.90;;;;;;5078060;28;20048;-81
2021/03/30 07:03:14;;;;;;;21.92;7.05;;;9.40;71.70;;;;;;5078333;28;20052;-80
2021/03/30 07:05:42;;;;;;;16.48;7.03;;;9.60;72.10;;;;;;5077743;28;20057;-79
2021/03/30 07:08:14;;;;;;;18.60;6.88;;;9.70;71.70;;;;;;5078040;28;20065;-81
2021/03/30 07:10:47;;;;;;;20.63;7.32;;;9.80;71.30;;;;;;5077741;28;20041;-82
2021/03/30 07:13:17;;;;;;;15.40;6.15;;;9.90;71.10;;;;;;5077214;28;20426;-82
2021/03/30 07:15:43;;;;;;;25.30;7.60;;;10.10;70.90;;;;;;5077611;28;20132;-80
2021/03/30 07:18:27;;;;;;;27.90;8.13;;;10.20;70.50;;;;;;5077849;28;20044;-81
2021/03/30 07:21:00;;;;;;;30.98;7.30;;;10.30;69.50;;;;;;5072876;28;20055;-80
2021/03/30 07:23:29;;;;;;;30.77;7.57;;;10.50;69.50;;;;;;5085212;28;20040;-80
2021/03/30 07:26:00;;;;;;;18.85;7.07;;;10.60;69.50;;;;;;5075806;28;20044;-79
2021/03/30 07:28:37;;;;;;;22.20;7.95;;;10.70;69.00;;;;;;5075236;28;20048;-80
2021/03/30 07:31:11;;;;;;;26.33;7.00;;;11.00;69.10;;;;;;5075029;28;20041;-80
2021/03/30 07:33:41;;;;;;;;;;;10.90;68.60;;;;;;5076505;28;20052;-81
2021/03/30 07:36:10;;;;;;;17.88;6.45;;;11.20;68.10;;;;;;5076047;28;19924;-80
2021/03/30 07:38:45;;;;;;;28.17;6.45;;;11.30;68.40;;;;;;5075831;28;20036;-83
2021/03/30 07:41:18;;;;;;;19.52;6.55;;;11.40;68.10;;;;;;5074160;28;20043;-84
2021/03/30 07:43:45;;;;;;;22.45;7.18;;;11.60;67.60;;;;;;5060725;28;20040;-83
2021/03/30 07:46:12;;;;;;;22.02;6.75;;;11.10;66.80;;;;;;5097458;28;20051;-84
2021/03/30 07:48:40;;;;;;;18.60;6.45;;;12.70;67.50;;;;;;5098289;28;20052;-85
2021/03/30 07:51:11;;;;;;;19.90;5.95;;;13.30;68.50;;;;;;5097195;28;20044;-85
2021/03/30 07:53:50;;;;;;;21.50;6.38;;;12.10;65.90;;;;;;5086823;28;20052;-84
2021/03/30 07:56:25;;;;;;;20.35;6.05;;;12.30;65.90;;;;;;5095219;28;20048;-84
2021/03/30 07:58:56;;;;;;;17.50;6.00;;;;;;;;;;5097360;28;20051;-84
2021/03/30 08:01:25;;;;;;;18.67;5.43;;;12.60;64.70;;;;;;5098186;28;20086;-83
2021/03/30 08:03:55;;;;;;;24.17;6.85;;;12.60;65.00;;;;;;5101181;28;20059;-84
2021/03/30 08:06:28;;;;;;;21.17;6.60;;;12.60;65.00;;;;;;5105053;28;20043;-84
2021/03/30 08:09:21;;;;;;;20.00;6.80;;;12.50;63.80;;;;;;5111449;28;20048;-85
2021/03/30 08:11:51;;;;;;;18.45;5.53;;;12.90;63.20;;;;;;5065808;28;20049;-84
2021/03/30 08:14:26;;;;;;;19.85;6.40;;;13.40;63.60;;;;;;5081784;28;20059;-86
2021/03/30 08:16:56;;;;;;;24.70;7.07;;;13.30;63.80;;;;;;5081005;28;20067;-84
2021/03/30 08:19:25;;;;;;;19.85;6.25;;;13.50;63.10;;;;;;5063456;28;20466;-86
2021/03/30 08:22:04;;;;;;;19.42;6.40;;;14.80;63.30;;;;;;5080667;28;20127;-85
2021/03/30 08:24:45;;;;;;;19.50;6.35;;;13.80;63.80;;;;;;5079092;28;20055;-85
2021/03/30 08:27:37;;;;;;;20.38;6.30;;;14.70;66.60;;;;;;5077143;28;20045;-86
2021/03/30 08:30:15;;;;;;;18.33;6.25;;;14.00;62.40;;;;;;5081888;28;20247;-84
2021/03/30 08:32:47;;;;;;;20.58;6.10;;;14.10;61.50;;;;;;5083989;28;20044;-85
2021/03/30 08:35:37;;;;;;;20.38;7.20;;;14.30;62.40;;;;;;5085163;28;20044;-82
2021/03/30 08:38:25;;;;;;;22.65;6.03;;;14.30;62.00;;;;;;5087065;28;20052;-86
2021/03/30 08:40:52;;;;;;;17.35;6.32;;;14.50;62.70;;;;;;5064139;28;20350;-86
2021/03/30 08:43:22;;;;;;;14.43;6.18;;;14.50;62.10;;;;;;5102273;28;20048;-86
2021/03/30 08:46:11;;;;;;;20.83;6.75;;;16.20;73.20;;;;;;5103231;28;20047;-86
2021/03/30 08:48:49;;;;;;;22.65;7.10;;;14.70;59.50;;;;;;5107204;28;20032;-86
2021/03/30 08:51:18;;;;;;;25.90;7.60;;;;;;;;;;5103654;28;20456;-85
2021/03/30 08:53:48;;;;;;;30.17;7.30;;;14.80;59.10;;;;;;5113835;28;20060;-85
2021/03/30 08:56:25;;;;;;;19.60;6.60;;;14.80;60.00;;;;;;5101688;28;20052;-86
2021/03/30 08:58:53;;;;;;;21.20;6.78;;;15.20;60.10;;;;;;5101659;28;20048;-86
2021/03/30 09:01:22;;;;;;;22.17;6.88;;;15.30;59.50;;;;;;5102840;28;20414;-86
2021/03/30 09:03:54;;;;;;;21.75;6.20;;;15.60;59.40;;;;;;5103376;28;20043;-85
2021/03/30 09:06:37;;;;;;;17.25;5.97;;;15.50;59.30;;;;;;5105135;28;20047;-85
2021/03/30 09:09:20;;;;;;;27.27;6.90;;;15.20;59.10;;;;;;5106390;28;20039;-84
2021/03/30 09:11:49;;;;;;;21.15;6.93;;;15.60;58.80;;;;;;5106277;28;20086;-85
2021/03/30 09:14:18;;;;;;;21.55;7.97;;;15.60;58.90;;;;;;5112161;28;20044;-86
2021/03/30 09:16:50;;;;;;;17.30;6.97;;;16.10;58.30;;;;;;5116205;28;20047;-85
2021/03/30 09:19:34;;;;;;;12.73;6.28;;;16.20;57.70;;;;;;5105931;28;20048;-84
2021/03/30 09:22:06;;;;;;;19.58;6.35;;;16.90;60.00;;;;;;5112013;28;20040;-85
2021/03/30 09:27:02;;;;;;;18.73;6.60;;;17.10;57.30;;;;;;5104714;28;20043;-84
2021/03/30 09:29:32;;;;;;;21.88;6.40;;;17.60;54.70;;;;;;5111878;28;20036;-84
2021/03/30 09:32:01;;;;;;;16.83;6.43;;;17.70;54.90;;;;;;5107494;28;20055;-83
2021/03/30 09:34:28;;;;;;;15.38;5.30;;;17.90;55.40;;;;;;5110711;28;20040;-85
2021/03/30 09:36:57;;;;;;;14.40;5.72;;;18.20;55.10;;;;;;5086934;28;20059;-85
2021/03/30 09:39:25;;;;;;;21.70;6.25;;;18.40;53.20;;;;;;5095897;28;20044;-87
2021/03/30 09:41:55;;;;;;;20.38;7.43;;;18.50;52.90;;;;;;5096077;28;20046;-85
2021/03/30 09:44:23;;;;;;;18.50;6.10;;;18.70;52.80;;;;;;5094748;28;20048;-88
2021/03/30 09:46:56;;;;;;;16.30;5.88;;;18.80;51.80;;;;;;5096678;28;20051;-85
2021/03/30 09:49:24;;;;;;;18.65;5.80;;;19.10;51.70;;;;;;5085702;28;20044;-88
2021/03/30 09:51:55;;;;;;;18.48;6.68;;;19.50;50.50;;;;;;5088571;28;20044;-86
2021/03/30 09:54:27;;;;;;;20.08;6.38;;;19.60;50.70;;;;;;5088909;28;20350;-86
2021/03/30 09:57:02;;;;;;;22.63;6.40;;;19.70;48.70;;;;;;5094871;28;20051;-86
2021/03/30 09:59:29;;;;;;;15.45;5.45;;;20.00;49.50;;;;;;5077973;28;20048;-87
2021/03/30 10:01:57;;;;;;;19.30;6.25;;;20.00;47.60;;;;;;5095888;28;20421;-86
2021/03/30 10:04:25;;;;;;;16.30;4.63;;;19.80;47.80;;;;;;5096261;28;20044;-87
2021/03/30 10:06:52;;;;;;;17.42;6.88;;;20.10;49.90;;;;;;5085756;28;20044;-84
2021/03/30 10:09:19;;;;;;;17.48;6.05;;;20.60;48.50;;;;;;5094845;28;20056;-85
2021/03/30 10:11:47;;;;;;;14.90;6.22;;;20.70;47.30;;;;;;5095217;28;20060;-83
2021/03/30 10:14:18;;;;;;;18.05;5.80;;;20.80;47.40;;;;;;5095979;28;20840;-83
2021/03/30 10:16:45;;;;;;;24.30;6.57;;;20.70;47.50;;;;;;5096480;28;20055;-84
2021/03/30 10:19:13;;;;;;;14.27;5.10;;;21.00;47.20;;;;;;5103965;28;20048;-79
2021/03/30 10:21:39;;;;;;;21.70;5.03;;;20.90;45.00;;;;;;5104422;28;20044;-81
2021/03/30 10:24:15;;;;;;;16.35;5.90;;;21.10;46.10;;;;;;5100952;28;20048;-82
2021/03/30 10:26:43;;;;;;;16.10;5.85;;;21.00;45.10;;;;;;5099386;28;20048;-82
2021/03/30 10:29:20;;;;;;;16.48;5.35;;;21.10;46.40;;;;;;5096473;28;20054;-82
2021/03/30 10:32:04;;;;;;;17.00;5.43;;;21.30;63.30;;;;;;5103914;28;20036;-81
2021/03/30 10:34:32;;;;;;;19.58;4.97;;;21.30;45.10;;;;;;5102381;28;20051;-81
2021/03/30 10:37:02;;;;;;;19.48;5.55;;;21.40;45.60;;;;;;5100425;28;20044;-82
2021/03/30 10:39:37;;;;;;;21.73;6.35;;;21.30;43.50;;;;;;5100460;28;20444;-84
2021/03/30 10:42:09;;;;;;;14.52;5.40;;;21.20;43.60;;;;;;5100256;28;20044;-83
2021/03/30 10:44:36;;;;;;;20.42;6.75;;;21.70;45.10;;;;;;5099973;28;20051;-83
2021/03/30 10:47:16;;;;;;;14.98;4.95;;;21.70;44.80;;;;;;5100306;28;20059;-85
2021/03/30 10:49:44;;;;;;;16.73;4.68;;;21.70;42.40;;;;;;5099999;28;20047;-86
2021/03/30 10:52:33;;;;;;;18.45;5.05;;;21.40;42.70;;;;;;5099942;28;20047;-86
2021/03/30 10:55:02;;;;;;;15.18;5.90;;;22.10;42.00;;;;;;5099600;28;20048;-86
2021/03/30 10:57:37;;;;;;;14.95;4.97;;;21.80;43.00;;;;;;5099801;28;20048;-85
2021/03/30 11:00:08;;;;;;;11.27;4.35;;;22.40;42.80;;;;;;5099434;28;20349;-88
2021/03/30 11:02:36;;;;;;;16.38;5.93;;;22.00;40.60;;;;;;5100358;28;20044;-88
2021/03/30 11:05:05;;;;;;;18.17;5.38;;;22.10;42.20;;;;;;5098202;28;20055;-85
2021/03/30 11:07:31;;;;;;;14.60;5.50;;;22.50;43.30;;;;;;5103321;28;20043;-86
2021/03/30 11:09:58;;;;;;;15.00;5.35;;;23.00;40.70;;;;;;5111491;28;20048;-85
2021/03/30 11:12:27;;;;;;;11.35;4.38;;;22.80;41.20;;;;;;5103380;28;20055;-86
2021/03/30 11:14:53;;;;;;;17.95;5.43;;;23.10;40.20;;;;;;5099579;28;20044;-86
2021/03/30 11:17:20;;;;;;;20.40;5.43;;;23.10;38.90;;;;;;5104513;28;20043;-86
2021/03/30 11:19:46;;;;;;;15.30;4.82;;;23.30;37.50;;;;;;5098059;28;20048;-86
2021/03/30 11:22:12;;;;;;;14.95;5.07;;;23.60;38.40;;;;;;5098063;28;20047;-86
2021/03/30 11:24:40;;;;;;;16.42;4.97;;;23.70;37.20;;;;;;5098551;28;20036;-87
2021/03/30 11:27:07;;;;;;;13.35;4.47;;;24.30;38.00;;;;;;5098931;28;20349;-88
2021/03/30 11:39:54;;;;;;;14.25;4.63;;;24.50;34.60;;;;;;5098860;28;20055;-87
2021/03/30 11:42:21;;;;;;;18.92;5.00;;;24.80;35.40;;;;;;5105610;28;20042;-86
2021/03/30 11:44:47;;;;;;;16.98;6.40;;;24.50;33.00;;;;;;5098919;28;20052;-86
2021/03/30 11:47:14;;;;;;;20.08;4.53;;;25.10;31.90;;;;;;5098787;28;20044;-85
2021/03/30 11:49:40;;;;;;;16.88;4.57;;;25.10;34.00;;;;;;5098045;28;20047;-85
2021/03/30 11:52:07;;;;;;;15.60;4.05;;;25.30;33.30;;;;;;5105822;28;20039;-86
2021/03/30 11:54:34;;;;;;;15.40;4.68;;;25.20;32.80;;;;;;5101688;28;20056;-85
2021/03/30 11:57:02;;;;;;;13.43;3.95;;;25.50;33.90;;;;;;5102440;28;20440;-87
2021/03/30 11:59:29;;;;;;;23.35;5.60;;;25.50;31.20;;;;;;5105409;28;20047;-85
2021/03/30 12:01:55;;;;;;;14.07;3.95;;;26.00;32.60;;;;;;5106685;28;20044;-85
2021/03/30 12:04:22;;;;;;;15.05;4.22;;;25.90;31.60;;;;;;5100415;28;20044;-85
2021/03/30 12:06:48;;;;;;;13.77;4.20;;;25.70;30.10;;;;;;5098625;28;20429;-86
2021/03/30 12:09:17;;;;;;;19.02;5.25;;;25.70;30.00;;;;;;5098197;28;20099;-85
2021/03/30 12:11:46;;;;;;;9.65;3.72;;;26.60;29.60;;;;;;5098458;28;20059;-85
2021/03/30 12:14:13;;;;;;;12.93;3.80;;;27.20;28.40;;;;;;5098841;28;20039;-85
2021/03/30 12:16:39;;;;;;;11.27;3.85;;;27.30;29.70;;;;;;5100096;28;20040;-86
2021/03/30 12:19:06;;;;;;;14.82;4.70;;;27.80;26.60;;;;;;5098567;28;20406;-86
2021/03/30 12:21:32;;;;;;;9.63;3.40;;;27.60;28.20;;;;;;5098909;28;20123;-86
2021/03/30 12:24:00;;;;;;;13.05;4.28;;;28.40;27.10;;;;;;5097732;28;20074;-85
2021/03/30 12:26:26;;;;;;;9.90;3.55;;;28.50;27.20;;;;;;5097274;28;20048;-85
2021/03/30 12:28:53;;;;;;;10.98;3.20;;;28.20;26.90;;;;;;5097981;28;20044;-87
2021/03/30 12:31:19;;;;;;;9.38;3.63;;;28.90;26.80;;;;;;5097727;28;20418;-85
2021/03/30 12:33:45;;;;;;;8.65;2.65;;;28.40;26.10;;;;;;5097555;28;20048;-85
2021/03/30 12:36:11;;;;;;;8.98;4.15;;;28.30;25.50;;;;;;5099989;28;20036;-84
2021/03/30 12:38:56;;;;;;;8.32;3.75;;;28.30;25.40;;;;;;5109828;28;20058;-85
2021/03/30 12:41:23;;;;;;;11.57;3.08;;;28.50;24.20;;;;;;5098633;28;20040;-86
2021/03/30 12:43:49;;;;;;;9.40;3.05;;;28.40;26.00;;;;;;5096476;28;20048;-84
2021/03/30 12:46:16;;;;;;;7.57;2.70;;;28.90;24.90;;;;;;5097982;28;20055;-85
2021/03/30 12:48:42;;;;;;;13.10;3.65;;;29.50;25.90;;;;;;5106813;28;20047;-83
2021/03/30 12:51:09;;;;;;;8.00;2.72;;;29.50;24.20;;;;;;5104822;28;20040;-84
2021/03/30 12:53:35;;;;;;;7.82;3.10;;;29.90;26.10;;;;;;5097422;28;20044;-85
2021/03/30 12:56:02;;;;;;;11.18;3.53;;;31.30;24.90;;;;;;5097077;28;20052;-85
2021/03/30 12:58:29;;;;;;;10.80;3.92;;;31.00;23.20;;;;;;5097642;28;20055;-85
2021/03/30 13:00:55;;;;;;;9.45;3.90;;;31.00;23.40;;;;;;5097291;28;20054;-85
2021/03/30 13:03:21;;;;;;;8.80;3.42;;;30.50;23.20;;;;;;5097932;28;20410;-84
2021/03/30 13:05:48;;;;;;;8.25;3.05;;;31.10;24.20;;;;;;5097596;28;20036;-85
2021/03/30 13:08:14;;;;;;;9.23;3.67;;;31.50;23.90;;;;;;5097017;28;20036;-85
2021/03/30 13:10:41;;;;;;;8.88;3.92;;;31.30;24.00;;;;;;5097121;28;20046;-85
2021/03/30 13:13:07;;;;;;;8.82;3.35;;;30.70;22.80;;;;;;5096658;28;20071;-85
2021/03/30 13:15:34;;;;;;;8.27;3.80;;;30.90;23.20;;;;;;5095531;28;20413;-85
2021/03/30 13:18:00;;;;;;;10.52;3.78;;;30.90;23.10;;;;;;5095808;28;20047;-84